Time;durP1;ratioP1;P1;durP2;ratioP2;P2;SDS_P1;SDS_P2;PMS_P1;PMS_P2;Temp;Humidity;BMP_temperature;BMP_pressure;BME280_temperature;BME280_humidity;BME280_pressure;Samples;Min_cycle;Max_cycle;Signal;HPM_P1;HPM_P2
2023/12/01 00:00:02;;;;;;;62.93;32.80;;;1.50;99.90;;;1.82;100.00;100249.91;5113491;28;20040;-67
2023/12/01 00:02:31;;;;;;;123.30;35.87;;;1.70;99.90;;;1.61;100.00;100248.59;5113332;28;20400;-68
2023/12/01 00:05:00;;;;;;;106.13;36.07;;;1.60;99.90;;;1.47;100.00;100261.31;5113732;28;20139;-68
2023/12/01 00:07:28;;;;;;;70.17;35.30;;;1.40;99.90;;;1.76;100.00;100260.22;5113662;28;20383;-68
2023/12/01 00:09:55;;;;;;;105.97;38.77;;;1.60;99.90;;;1.55;100.00;100256.28;5113320;28;20480;-67
2023/12/01 00:12:24;;;;;;;75.87;35.80;;;1.50;99.90;;;1.60;100.00;100257.28;5113290;28;20051;-66
2023/12/01 00:14:52;;;;;;;69.83;35.97;;;1.50;99.90;;;1.81;100.00;100266.44;5113657;28;20043;-67
2023/12/01 00:17:22;;;;;;;97.00;38.77;;;1.70;99.90;;;1.80;100.00;100277.69;5095493;28;20044;-69
2023/12/01 00:19:50;;;;;;;77.97;38.58;;;1.70;99.90;;;1.59;100.00;100281.56;5113482;28;20039;-69
2023/12/01 00:22:19;;;;;;;108.10;40.80;;;1.60;99.90;;;1.47;100.00;100273.50;5113454;28;20108;-68
2023/12/01 00:24:47;;;;;;;130.60;40.50;;;1.50;99.90;;;1.63;100.00;100275.56;5113417;28;20047;-69
2023/12/01 00:27:15;;;;;;;91.43;40.30;;;1.50;99.90;;;1.70;100.00;100285.28;5094605;28;20052;-69
2023/12/01 00:29:44;;;;;;;98.23;39.30;;;1.60;99.90;;;1.44;100.00;100270.81;5113213;28;20521;-68
2023/12/01 00:32:13;;;;;;;102.10;39.80;;;1.40;99.90;;;1.54;100.00;100298.81;5113412;28;20043;-70
2023/12/01 00:34:42;;;;;;;86.10;39.13;;;1.50;99.90;;;1.58;100.00;100285.03;5113333;28;20043;-70
2023/12/01 00:37:11;;;;;;;93.00;36.20;;;1.50;99.90;;;1.36;100.00;100277.56;5095025;28;20138;-70
2023/12/01 00:39:39;;;;;;;77.47;36.23;;;1.40;99.90;;;1.40;100.00;100279.41;5112938;28;20164;-70
2023/12/01 00:42:08;;;;;;;88.20;35.50;;;1.30;99.90;;;1.52;100.00;100279.66;5113253;28;20473;-70
2023/12/01 00:44:36;;;;;;;67.90;34.80;;;1.40;99.90;;;1.78;100.00;100281.97;5113268;28;20036;-70
2023/12/01 00:47:05;;;;;;;61.27;33.60;;;1.60;99.90;;;2.20;100.00;100281.97;5113190;28;20088;-69
2023/12/01 00:49:33;;;;;;;63.63;32.53;;;2.00;99.90;;;2.37;100.00;100283.19;5094964;28;20047;-70
2023/12/01 00:52:04;;;;;;;68.70;35.70;;;2.20;99.90;;;2.39;100.00;100301.47;5113143;28;20074;-70
2023/12/01 00:54:32;;;;;;;96.27;38.53;;;2.30;99.90;;;2.27;100.00;100289.06;5112944;28;20044;-69
2023/12/01 00:57:02;;;;;;;81.73;37.27;;;2.40;99.90;;;2.08;100.00;100286.06;5094761;28;20052;-70
2023/12/01 00:59:30;;;;;;;68.77;36.07;;;2.30;99.90;;;2.39;100.00;100298.84;5112995;28;20039;-70
2023/12/01 01:01:58;;;;;;;66.30;34.20;;;2.30;99.90;;;2.57;100.00;100307.03;5112516;28;20052;-69
2023/12/01 01:04:27;;;;;;;70.33;36.13;;;2.50;99.90;;;2.78;100.00;100301.31;5094608;28;20154;-69
2023/12/01 01:06:55;;;;;;;99.33;38.53;;;2.70;99.90;;;2.33;100.00;100302.22;5112743;28;20073;-69
2023/12/01 01:09:26;;;;;;;124.37;39.10;;;2.40;99.90;;;2.17;100.00;100309.75;5113009;28;20043;-70
2023/12/01 01:11:54;;;;;;;84.67;38.43;;;2.30;99.90;;;2.02;100.00;100312.91;5112970;28;20043;-70
2023/12/01 01:14:23;;;;;;;95.77;41.23;;;2.00;99.90;;;2.08;100.00;100309.53;5094757;28;20550;-69
2023/12/01 01:16:51;;;;;;;149.83;46.90;;;2.00;99.90;;;1.51;100.00;100319.63;5112449;28;20493;-70
2023/12/01 01:19:20;;;;;;;145.33;46.03;;;1.60;99.90;;;1.50;100.00;100316.13;5094529;28;20130;-69
2023/12/01 01:21:48;;;;;;;140.90;48.83;;;1.50;99.90;;;1.47;100.00;100307.38;5112603;28;20561;-69
2023/12/01 01:24:17;;;;;;;97.00;45.30;;;1.50;99.90;;;2.05;100.00;100328.63;5094328;28;20052;-70
2023/12/01 01:26:47;;;;;;;144.87;52.10;;;1.80;99.90;;;1.88;100.00;100329.97;5112566;28;20040;-69
2023/12/01 01:29:15;;;;;;;113.90;52.42;;;1.90;99.90;;;1.83;100.00;100322.06;5094603;28;20047;-70
2023/12/01 01:31:43;;;;;;;112.87;54.23;;;1.80;99.90;;;2.17;100.00;100338.44;5094524;28;20051;-69
2023/12/01 01:34:12;;;;;;;100.83;51.50;;;2.00;99.90;;;2.34;100.00;100313.56;5112761;28;20127;-69
2023/12/01 01:36:44;;;;;;;106.83;50.40;;;2.30;99.90;;;2.63;100.00;100338.47;5113540;28;20385;-69
2023/12/01 01:39:12;;;;;;;108.83;52.93;;;2.50;99.90;;;2.66;100.00;100344.63;5116690;28;20438;-70
2023/12/01 01:41:42;;;;;;;108.30;51.83;;;2.60;99.90;;;2.75;100.00;100329.13;5115623;28;20484;-70
2023/12/01 01:44:12;;;;;;;101.97;49.27;;;2.70;99.90;;;2.64;100.00;100340.22;5115835;28;20416;-69
2023/12/01 01:46:40;;;;;;;99.90;49.17;;;2.70;99.90;;;2.74;100.00;100345.66;5115562;28;20289;-69
2023/12/01 01:49:09;;;;;;;98.77;49.30;;;2.70;99.90;;;2.47;100.00;100344.25;5115458;28;20085;-69
2023/12/01 01:51:38;;;;;;;101.27;50.00;;;2.50;99.90;;;2.51;100.00;100354.78;5097287;28;20052;-70
2023/12/01 01:54:06;;;;;;;105.13;49.57;;;2.50;99.90;;;1.91;100.00;100357.84;5097248;28;20040;-69
2023/12/01 01:56:35;;;;;;;92.83;46.37;;;2.10;99.90;;;2.12;100.00;100361.81;5115279;28;20039;-69
2023/12/01 01:59:04;;;;;;;89.00;45.13;;;2.10;99.90;;;2.30;100.00;100356.97;5097047;28;20484;-70
2023/12/01 02:01:39;;;;;;;99.57;44.83;;;2.30;99.90;;;2.44;100.00;100360.72;5096773;28;20059;-69
2023/12/01 02:04:08;;;;;;;99.27;46.20;;;2.40;99.90;;;2.20;100.00;100365.44;5097058;28;20467;-70
2023/12/01 02:06:37;;;;;;;97.93;46.83;;;2.30;99.90;;;1.86;100.00;100365.56;5096954;28;20058;-69
2023/12/01 02:09:06;;;;;;;111.37;48.70;;;2.00;99.90;;;1.94;100.00;100365.72;5115343;28;20036;-70
2023/12/01 02:11:35;;;;;;;114.70;47.17;;;1.90;99.90;;;1.46;100.00;100360.28;5096870;28;20048;-70
2023/12/01 02:14:04;;;;;;;109.40;44.97;;;1.60;99.90;;;0.90;100.00;100365.00;5096874;28;20047;-72
2023/12/01 02:16:34;;;;;;;104.40;44.60;;;1.10;99.90;;;0.79;100.00;100362.97;5114914;28;20377;-69
2023/12/01 02:19:03;;;;;;;104.93;43.63;;;0.90;99.90;;;0.58;100.00;100365.84;5096849;28;20051;-70
2023/12/01 02:21:36;;;;;;;97.03;43.03;;;0.60;99.90;;;0.99;100.00;100359.13;5096978;28;20097;-70
2023/12/01 02:24:08;;;;;;;91.87;43.33;;;0.90;99.90;;;0.98;100.00;100361.69;5115619;28;20486;-70
2023/12/01 02:26:37;;;;;;;96.90;42.30;;;0.90;99.90;;;0.81;100.00;100367.34;5096947;28;20051;-69
2023/12/01 02:29:06;;;;;;;93.40;44.07;;;0.80;99.90;;;1.13;100.00;100364.69;5114939;28;20071;-69
2023/12/01 02:31:36;;;;;;;114.00;45.00;;;1.00;99.90;;;1.27;100.00;100374.63;5114969;28;20043;-69
2023/12/01 02:34:05;;;;;;;93.43;41.93;;;1.20;99.90;;;1.39;100.00;100374.91;5114718;28;20043;-69
2023/12/01 02:36:35;;;;;;;94.20;42.73;;;1.30;99.90;;;1.42;100.00;100369.78;5114417;28;20050;-69
2023/12/01 02:39:04;;;;;;;104.75;43.72;;;1.40;99.90;;;1.44;100.00;100375.91;5114347;28;20047;-69
2023/12/01 02:41:32;;;;;;;94.47;42.70;;;1.40;99.90;;;1.15;100.00;100365.59;5114349;28;20047;-69
2023/12/01 02:44:01;;;;;;;88.87;41.70;;;1.30;99.90;;;1.52;100.00;100376.06;5114637;28;20047;-69
2023/12/01 02:46:29;;;;;;;86.57;39.70;;;1.40;99.90;;;1.50;100.00;100364.72;5114528;28;20083;-69
2023/12/01 02:48:58;;;;;;;89.03;40.10;;;1.50;99.90;;;1.30;100.00;100366.88;5113696;28;20055;-69
2023/12/01 02:51:26;;;;;;;75.33;39.33;;;1.40;99.90;;;1.65;100.00;100378.09;5114441;28;20044;-70
2023/12/01 02:53:56;;;;;;;73.97;37.40;;;1.60;99.90;;;1.80;100.00;100379.34;5114421;28;20036;-69
2023/12/01 02:56:24;;;;;;;70.88;37.20;;;1.80;99.90;;;1.92;100.00;100367.44;5114087;28;20048;-70
2023/12/01 02:58:52;;;;;;;81.67;38.17;;;1.90;99.90;;;1.11;100.00;100382.00;5113989;28;20124;-69
2023/12/01 03:01:23;;;;;;;67.80;36.00;;;1.30;99.90;;;1.19;100.00;100370.03;5095623;28;20069;-69
2023/12/01 03:03:52;;;;;;;65.20;34.63;;;1.30;99.90;;;1.52;100.00;100378.69;5096037;28;20381;-69
2023/12/01 03:06:21;;;;;;;74.13;35.57;;;1.40;99.90;;;0.97;100.00;100375.56;5095867;28;20052;-70
2023/12/01 03:08:49;;;;;;;67.00;35.70;;;1.00;99.90;;;1.16;100.00;100376.06;5114215;28;20055;-69
2023/12/01 03:11:25;;;;;;;79.03;36.83;;;1.10;99.90;;;0.87;100.00;100364.91;5095863;28;20071;-69
2023/12/01 03:13:53;;;;;;;78.97;37.50;;;0.90;99.90;;;0.45;100.00;100366.38;5114135;28;20058;-69
2023/12/01 03:16:22;;;;;;;73.17;36.13;;;0.60;99.90;;;0.64;100.00;100360.81;5114085;28;20048;-68
2023/12/01 03:18:50;;;;;;;85.50;37.50;;;0.70;99.90;;;0.41;100.00;100367.13;5114047;28;20044;-69
2023/12/01 03:21:19;;;;;;;78.23;38.47;;;0.50;99.90;;;0.57;100.00;100368.41;5113740;28;20454;-69
2023/12/01 03:23:49;;;;;;;74.87;36.87;;;0.60;99.90;;;0.80;100.00;100373.41;5114248;28;20074;-69
2023/12/01 03:26:18;;;;;;;72.60;37.40;;;0.70;99.90;;;0.98;100.00;100366.91;5095433;28;20047;-69
2023/12/01 03:28:48;;;;;;;76.53;37.22;;;0.90;99.90;;;1.34;100.00;100386.03;5113955;28;20041;-69
2023/12/01 03:31:16;;;;;;;73.50;36.45;;;1.20;99.90;;;1.27;100.00;100385.03;5113615;28;20046;-69
2023/12/01 03:33:45;;;;;;;77.67;36.10;;;1.30;99.90;;;0.84;100.00;100382.16;5095483;28;20047;-70
2023/12/01 03:36:13;;;;;;;71.50;35.67;;;1.00;99.90;;;0.58;100.00;100380.59;5114049;28;20048;-70
2023/12/01 03:38:42;;;;;;;73.57;34.77;;;0.70;99.90;;;0.61;100.00;100368.56;5113908;28;20044;-69
2023/12/01 03:41:10;;;;;;;78.77;38.00;;;0.70;99.90;;;0.37;100.00;100390.41;5113789;28;20044;-69
2023/12/01 03:43:38;;;;;;;81.17;39.50;;;0.50;99.90;;;0.68;100.00;100393.88;5113657;28;20044;-69
2023/12/01 03:46:08;;;;;;;90.67;40.00;;;0.60;99.90;;;0.17;100.00;100357.75;5095242;28;20116;-69
2023/12/01 03:48:37;;;;;;;80.30;38.20;;;0.50;99.90;;;0.66;100.00;100394.69;5113541;28;20075;-69
2023/12/01 03:51:09;;;;;;;84.20;40.83;;;0.60;99.90;;;0.98;100.00;100392.94;5113466;28;20051;-69
2023/12/01 03:53:38;;;;;;;86.67;41.17;;;0.90;99.90;;;1.13;100.00;100394.22;5113157;28;20043;-69
2023/12/01 03:56:08;;;;;;;77.17;37.87;;;1.10;99.90;;;1.13;100.00;100403.75;5113394;28;20433;-69
2023/12/01 03:58:36;;;;;;;71.97;37.03;;;1.10;99.90;;;1.45;100.00;100410.66;5095032;28;20553;-69
2023/12/01 04:01:05;;;;;;;74.20;35.90;;;1.40;99.90;;;1.53;100.00;100409.13;5094257;28;20052;-69
2023/12/01 04:03:35;;;;;;;66.40;34.17;;;1.40;99.90;;;1.45;100.00;100406.28;5112971;28;20114;-69
2023/12/01 04:06:04;;;;;;;63.90;32.30;;;1.50;99.90;;;1.62;100.00;100401.50;5113147;28;20047;-69
2023/12/01 04:08:33;;;;;;;61.50;31.73;;;1.60;99.90;;;1.74;100.00;100407.88;5094721;28;20134;-69
2023/12/01 04:11:02;;;;;;;58.60;31.47;;;1.70;99.90;;;1.56;100.00;100403.97;5112766;28;20047;-69
2023/12/01 04:13:30;;;;;;;57.57;27.60;;;1.60;99.90;;;1.63;100.00;100411.06;5112975;28;20040;-69
2023/12/01 04:15:58;;;;;;;57.80;29.90;;;1.70;99.90;;;1.79;100.00;100419.31;5094604;28;20047;-69
2023/12/01 04:18:28;;;;;;;56.57;30.53;;;1.80;99.90;;;1.83;100.00;100408.09;5094792;28;20493;-69
2023/12/01 04:20:58;;;;;;;58.85;29.52;;;1.90;99.90;;;1.79;100.00;100421.03;5113050;28;20179;-70
2023/12/01 04:23:27;;;;;;;60.25;30.10;;;1.90;99.90;;;1.66;100.00;100405.94;5113230;28;20051;-69
2023/12/01 04:25:55;;;;;;;56.43;28.97;;;1.80;99.90;;;1.43;100.00;100418.41;5094559;28;20044;-69
2023/12/01 04:28:24;;;;;;;57.37;30.33;;;1.60;99.90;;;1.00;100.00;100432.91;5112536;28;20515;-69
2023/12/01 04:30:52;;;;;;;55.70;29.90;;;1.10;99.90;;;1.24;100.00;100425.75;5112701;28;20051;-69
2023/12/01 04:33:23;;;;;;;52.77;28.30;;;1.20;99.90;;;1.67;100.00;100444.19;5113021;28;20039;-69
2023/12/01 04:35:52;;;;;;;56.00;29.07;;;1.50;99.90;;;1.89;100.00;100443.84;5112389;28;20032;-69
2023/12/01 04:38:22;;;;;;;60.37;29.77;;;1.80;99.90;;;1.92;100.00;100433.50;5112676;28;20059;-69
2023/12/01 04:40:50;;;;;;;65.05;31.00;;;2.00;99.90;;;2.04;100.00;100438.97;5112628;28;20043;-70
2023/12/01 04:43:19;;;;;;;59.33;29.40;;;2.00;99.90;;;2.09;100.00;100446.91;5112337;28;20093;-69
2023/12/01 04:45:47;;;;;;;59.43;28.97;;;2.10;99.90;;;2.08;100.00;100443.44;5112402;28;20104;-69
2023/12/01 04:48:15;;;;;;;63.37;29.80;;;2.10;99.90;;;2.21;100.00;100460.22;5112277;28;20047;-70
2023/12/01 04:50:48;;;;;;;60.17;31.17;;;2.20;99.90;;;2.14;100.00;100471.38;5112260;28;20047;-69
2023/12/01 04:53:16;;;;;;;58.77;29.00;;;2.10;99.90;;;1.45;100.00;100467.97;5112327;28;20118;-70
2023/12/01 04:55:47;;;;;;;63.80;30.97;;;1.60;99.90;;;0.87;100.00;100461.22;5112225;28;20454;-69
2023/12/01 04:58:16;;;;;;;55.70;29.13;;;1.10;99.90;;;1.07;100.00;100473.88;5112235;28;20051;-69
2023/12/01 05:00:44;;;;;;;57.23;28.47;;;1.00;99.90;;;1.44;100.00;100463.59;5112083;28;20073;-69
2023/12/01 05:03:13;;;;;;;54.70;28.23;;;1.30;99.90;;;1.66;100.00;100482.41;5112557;28;20051;-69
2023/12/01 05:05:42;;;;;;;53.53;27.10;;;1.60;99.90;;;1.53;100.00;100471.66;5112109;28;20046;-69
2023/12/01 05:08:11;;;;;;;47.27;25.50;;;1.60;99.90;;;1.49;100.00;100477.63;5112445;28;20135;-69
2023/12/01 05:10:44;;;;;;;47.40;25.87;;;1.50;99.90;;;1.65;100.00;100480.63;5112419;28;20066;-69
2023/12/01 05:13:15;;;;;;;52.83;26.33;;;1.60;99.90;;;1.86;100.00;100482.00;5115240;28;20368;-69
2023/12/01 05:15:44;;;;;;;;;;;1.80;99.90;;;1.69;100.00;100482.47;5116928;28;20172;-69
2023/12/01 05:18:13;;;;;;;47.23;24.17;;;1.80;99.90;;;1.89;100.00;100489.91;5116024;28;19919;-69
2023/12/01 05:20:41;;;;;;;55.07;26.90;;;1.90;99.90;;;1.84;100.00;100495.00;5115875;28;20508;-69
2023/12/01 05:23:16;;;;;;;51.43;26.30;;;1.80;99.90;;;1.66;100.00;100484.13;5115957;28;20108;-69
2023/12/01 05:25:46;;;;;;;56.73;27.43;;;1.60;99.90;;;1.95;100.00;100490.03;5115857;28;20040;-69
2023/12/01 05:28:16;;;;;;;51.97;26.92;;;1.80;99.90;;;1.73;100.00;100488.66;5116468;28;20044;-69
2023/12/01 05:30:46;;;;;;;52.13;26.25;;;1.80;99.90;;;1.55;99.70;100499.50;5116723;28;20451;-69
2023/12/01 05:33:16;;;;;;;51.00;26.00;;;1.70;99.90;;;1.63;100.00;100487.53;5115906;28;20047;-69
2023/12/01 05:35:45;;;;;;;54.75;26.58;;;1.60;99.90;;;1.60;100.00;100486.59;5116048;28;20408;-69
2023/12/01 05:38:16;;;;;;;48.58;25.17;;;1.70;99.90;;;1.95;99.97;100496.16;5115656;28;20040;-69
2023/12/01 05:40:44;;;;;;;52.80;25.77;;;1.90;99.90;;;1.90;99.08;100489.94;5115569;28;20092;-69
2023/12/01 05:43:16;;;;;;;54.77;26.43;;;2.00;99.90;;;2.12;98.95;100496.53;5115531;28;20571;-69
2023/12/01 05:45:46;;;;;;;51.50;25.53;;;2.10;99.90;;;2.18;98.19;100494.06;5115495;28;20461;-69
2023/12/01 05:48:15;;;;;;;49.53;24.95;;;2.20;99.90;;;2.33;97.76;100502.22;5115773;28;20048;-70
2023/12/01 05:50:44;;;;;;;47.40;25.70;;;2.30;99.90;;;2.34;97.42;100501.41;5115883;28;20077;-69
2023/12/01 05:53:13;;;;;;;57.83;28.73;;;2.30;99.90;;;2.38;96.96;100498.03;5115609;28;20408;-69
2023/12/01 05:55:42;;;;;;;51.73;27.40;;;2.40;99.90;;;2.59;96.64;100506.31;5097230;28;20388;-69
2023/12/01 05:58:13;;;;;;;57.27;29.40;;;2.60;99.90;;;2.54;95.42;100500.97;5115313;28;20192;-69
2023/12/01 06:00:42;;;;;;;56.13;29.80;;;2.60;99.90;;;2.68;95.32;100504.78;5115226;28;20046;-69
2023/12/01 06:03:12;;;;;;;61.27;29.33;;;2.70;99.90;;;2.69;94.38;100516.97;5115581;28;20055;-69
2023/12/01 06:05:41;;;;;;;60.22;31.40;;;2.70;99.90;;;2.68;93.83;100515.22;5115193;28;20455;-69
2023/12/01 06:08:10;;;;;;;64.30;31.33;;;2.70;99.90;;;2.69;93.58;100521.34;5115112;28;20055;-69
2023/12/01 06:10:40;;;;;;;64.25;31.30;;;2.70;99.90;;;2.65;93.02;100522.97;5115408;28;20057;-69
2023/12/01 06:13:09;;;;;;;62.00;31.70;;;2.70;99.90;;;2.79;92.80;100522.41;5115126;28;20040;-69
2023/12/01 06:15:38;;;;;;;62.73;31.93;;;2.80;99.90;;;2.72;92.46;100529.22;5115428;28;20044;-69
2023/12/01 06:18:07;;;;;;;63.40;31.97;;;2.80;99.90;;;2.48;93.08;100526.06;5115060;28;20118;-70
2023/12/01 06:20:38;;;;;;;66.53;33.47;;;2.60;99.90;;;2.37;93.66;100524.94;5115643;28;20431;-69
2023/12/01 06:23:06;;;;;;;66.10;31.80;;;2.40;99.90;;;2.43;93.89;100530.31;5114143;28;20450;-69
2023/12/01 06:25:41;;;;;;;70.45;33.33;;;2.40;99.90;;;2.37;94.86;100533.66;5115232;28;20054;-69
2023/12/01 06:28:10;;;;;;;66.83;33.37;;;2.30;99.90;;;2.38;94.22;100538.00;5115416;28;20118;-70
2023/12/01 06:30:40;;;;;;;68.63;33.40;;;2.30;99.90;;;2.38;94.29;100530.19;5115030;28;20044;-69
2023/12/01 06:33:08;;;;;;;70.87;34.87;;;2.40;99.90;;;2.44;93.55;100545.13;5115060;28;20119;-70
2023/12/01 06:35:38;;;;;;;69.50;34.97;;;2.50;99.90;;;2.37;93.08;100544.09;5115380;28;20047;-71
2023/12/01 06:38:08;;;;;;;76.07;35.50;;;2.40;99.90;;;2.55;92.46;100534.09;5114904;28;20059;-70
2023/12/01 06:40:36;;;;;;;69.20;33.50;;;2.50;99.90;;;2.70;92.18;100531.78;5114756;28;20434;-70
2023/12/01 06:43:09;;;;;;;77.23;37.00;;;2.70;99.90;;;2.59;91.24;100529.81;5114679;28;20047;-71
2023/12/01 06:45:41;;;;;;;71.90;33.47;;;2.70;99.90;;;2.72;91.36;100543.16;5114398;28;20408;-71
2023/12/01 06:48:11;;;;;;;64.93;32.60;;;2.70;99.90;;;2.62;90.05;100529.84;5114954;28;20108;-72
2023/12/01 06:50:41;;;;;;;65.57;32.27;;;2.60;99.90;;;2.72;89.90;100535.31;5114690;28;20047;-71
2023/12/01 06:53:10;;;;;;;64.15;32.60;;;2.70;99.90;;;2.83;89.52;100524.22;5114304;28;20134;-71
2023/12/01 06:55:39;;;;;;;64.47;33.23;;;2.80;99.90;;;2.77;88.82;100535.41;5114213;28;20049;-71
2023/12/01 06:58:09;;;;;;;61.73;31.80;;;2.80;99.90;;;2.78;88.08;100554.56;5114449;28;20039;-71
2023/12/01 07:00:39;;;;;;;62.60;32.13;;;2.80;99.90;;;2.71;88.19;100543.09;5114523;28;20050;-70
2023/12/01 07:03:09;;;;;;;61.78;31.80;;;2.70;99.90;;;2.78;88.21;100549.34;5114353;28;20051;-70
2023/12/01 07:05:43;;;;;;;69.57;34.00;;;2.80;99.90;;;2.92;88.27;100540.97;5114100;28;20043;-71
2023/12/01 07:08:13;;;;;;;62.77;33.10;;;2.90;99.90;;;2.87;87.93;100570.41;5114294;28;20068;-70
2023/12/01 07:10:43;;;;;;;68.30;35.93;;;3.00;99.90;;;3.17;87.93;100558.00;5113825;28;20039;-71
2023/12/01 07:13:12;;;;;;;62.30;32.33;;;3.10;99.90;;;3.14;87.12;100550.97;5114259;28;20476;-70
2023/12/01 07:15:40;;;;;;;65.00;32.63;;;3.10;99.90;;;3.18;86.38;100559.75;5113919;28;20044;-70
2023/12/01 07:18:10;;;;;;;61.00;31.67;;;3.20;99.90;;;3.19;86.05;100558.94;5113661;28;20115;-71
2023/12/01 07:20:39;;;;;;;59.65;31.58;;;3.20;99.90;;;2.99;85.26;100557.63;5113653;28;20039;-70
2023/12/01 07:23:08;;;;;;;63.10;32.43;;;3.10;99.90;;;3.03;85.37;100565.56;5113833;28;20120;-71
2023/12/01 07:25:37;;;;;;;59.50;30.85;;;3.00;99.90;;;3.13;85.64;100561.41;5113461;28;20054;-70
2023/12/01 07:28:08;;;;;;;65.37;30.93;;;3.10;99.90;;;2.93;85.07;100532.28;5095207;28;20067;-71
2023/12/01 07:30:38;;;;;;;57.67;31.20;;;3.10;99.90;;;3.01;85.19;100567.25;5113346;28;20039;-70
2023/12/01 07:33:07;;;;;;;62.83;31.33;;;3.10;99.90;;;2.95;85.82;100566.25;5113292;28;20051;-70
2023/12/01 07:35:36;;;;;;;67.53;32.88;;;2.90;99.90;;;2.88;86.21;100569.59;5112931;28;20047;-70
2023/12/01 07:38:05;;;;;;;60.13;31.63;;;2.90;99.90;;;3.03;85.97;100588.19;5113698;28;20067;-70
2023/12/01 07:40:35;;;;;;;61.57;31.00;;;3.00;99.90;;;2.96;86.44;100568.88;5113156;28;20090;-70
2023/12/01 07:43:03;;;;;;;58.58;29.60;;;2.90;99.90;;;3.04;85.68;100587.34;5113107;28;20237;-71
2023/12/01 07:45:34;;;;;;;60.97;30.47;;;3.00;99.90;;;3.13;85.31;100583.19;5113207;28;20039;-70
2023/12/01 07:48:03;;;;;;;58.07;29.43;;;3.10;99.90;;;3.01;85.05;100582.94;5113435;28;20473;-71
2023/12/01 07:50:32;;;;;;;61.00;31.97;;;3.00;99.90;;;2.94;84.91;100590.63;5113131;28;20047;-70
2023/12/01 07:53:04;;;;;;;63.60;30.07;;;3.00;99.90;;;2.68;84.75;100580.47;5095018;28;20439;-70
2023/12/01 07:55:33;;;;;;;63.83;31.93;;;2.80;99.90;;;2.66;85.15;100578.69;5113141;28;20039;-70
2023/12/01 07:58:02;;;;;;;63.17;31.45;;;2.70;99.90;;;2.50;86.12;100587.88;5095255;28;20514;-69
2023/12/01 08:00:31;;;;;;;63.70;29.93;;;2.50;99.90;;;2.72;86.16;100590.16;5113279;28;20053;-64
2023/12/01 08:02:59;;;;;;;67.10;30.67;;;2.70;99.90;;;2.05;86.98;100591.13;5113094;28;20055;-69
2023/12/01 08:05:28;;;;;;;65.83;30.30;;;2.20;99.90;;;2.38;88.63;100597.19;5113288;28;20044;-65
2023/12/01 08:07:56;;;;;;;62.17;29.87;;;2.30;99.90;;;2.57;88.26;100594.16;5112835;28;20048;-64
2023/12/01 08:10:27;;;;;;;62.30;31.00;;;2.40;99.90;;;2.62;87.31;100590.78;5112730;28;20043;-68
2023/12/01 08:13:01;;;;;;;64.13;31.30;;;2.70;99.90;;;2.34;87.54;100593.59;5112857;28;20431;-68
2023/12/01 08:15:30;;;;;;;;;;;2.40;99.90;;;2.62;87.63;100589.91;5113352;28;20040;-70
2023/12/01 08:18:00;;;;;;;61.33;30.23;;;2.60;99.90;;;2.18;87.44;100590.59;5112789;28;19924;-69
2023/12/01 08:20:30;;;;;;;62.10;30.73;;;2.30;99.90;;;2.30;87.37;100565.69;5112938;28;20050;-69
2023/12/01 08:23:00;;;;;;;64.00;31.42;;;2.40;99.90;;;2.76;87.11;100609.38;5112844;28;20036;-71
2023/12/01 08:25:29;;;;;;;63.40;30.65;;;2.60;99.90;;;2.50;88.30;100597.44;5113035;28;20500;-71
2023/12/01 08:28:00;;;;;;;61.97;31.37;;;2.50;99.90;;;2.71;87.92;100604.03;5113097;28;20500;-72
2023/12/01 08:30:31;;;;;;;65.55;31.75;;;2.60;99.90;;;2.95;87.18;100592.38;5112623;28;20301;-69
2023/12/01 08:33:01;;;;;;;70.33;33.23;;;2.80;99.90;;;2.84;86.70;100601.69;5094185;28;20159;-70
2023/12/01 08:35:29;;;;;;;67.80;32.90;;;2.90;99.90;;;2.77;87.13;100595.44;5112510;28;20036;-70
2023/12/01 08:37:58;;;;;;;63.80;32.30;;;2.70;99.90;;;2.90;86.80;100602.72;5112498;28;20123;-70
2023/12/01 08:40:26;;;;;;;62.83;31.03;;;2.90;99.90;;;2.85;86.63;100606.94;5112497;28;20051;-70
2023/12/01 08:42:55;;;;;;;64.37;32.37;;;2.80;99.90;;;2.53;86.29;100605.34;5112619;28;20443;-73
2023/12/01 08:45:25;;;;;;;63.77;31.47;;;2.60;99.90;;;2.92;86.70;100611.47;5112391;28;20481;-70
2023/12/01 08:47:53;;;;;;;66.88;32.22;;;2.80;99.90;;;2.71;85.46;100603.16;5115428;28;20100;-70
2023/12/01 08:50:23;;;;;;;66.93;33.10;;;2.70;99.90;;;2.61;86.38;100607.28;5117281;28;20092;-63
2023/12/01 08:52:52;;;;;;;72.17;33.60;;;2.60;99.90;;;2.78;86.68;100609.41;5098514;28;20061;-70
2023/12/01 08:55:20;;;;;;;62.33;30.10;;;2.70;99.90;;;2.83;86.17;100605.19;5116724;28;20104;-69
2023/12/01 08:57:48;;;;;;;59.27;28.83;;;2.70;99.90;;;2.92;85.30;100623.66;5116761;28;20044;-70
2023/12/01 09:00:20;;;;;;;58.03;28.90;;;2.90;99.90;;;2.66;85.38;100613.50;5116696;28;20053;-69
2023/12/01 09:02:52;;;;;;;59.33;28.60;;;2.60;99.90;;;2.79;84.37;100616.41;5116628;28;20075;-69
2023/12/01 09:05:21;;;;;;;60.20;29.20;;;2.80;99.90;;;2.44;85.00;100618.19;5116364;28;20122;-70
2023/12/01 09:07:50;;;;;;;61.73;30.37;;;2.50;99.90;;;2.76;86.12;100617.19;5116254;28;20044;-69
2023/12/01 09:10:22;;;;;;;61.03;31.13;;;2.60;99.90;;;2.64;85.74;100632.56;5116241;28;20071;-69
2023/12/01 09:12:52;;;;;;;63.40;30.37;;;2.60;99.90;;;2.67;85.96;100606.56;5116534;28;20039;-69
2023/12/01 09:15:21;;;;;;;59.23;30.27;;;2.70;99.90;;;3.03;85.12;100629.97;5097994;28;20088;-70
2023/12/01 09:17:51;;;;;;;64.77;30.30;;;2.90;99.90;;;2.35;84.62;100511.88;5098019;28;20055;-70
2023/12/01 09:20:20;;;;;;;65.03;31.33;;;3.10;99.90;;;3.21;84.89;100638.22;5116494;28;20058;-70
2023/12/01 09:22:48;;;;;;;60.33;30.20;;;3.20;99.90;;;3.41;84.68;100635.16;5115926;28;20050;-69
2023/12/01 09:25:17;;;;;;;59.50;30.33;;;3.30;99.90;;;3.50;83.79;100637.94;5115853;28;20369;-69
2023/12/01 09:27:45;;;;;;;63.20;30.63;;;3.50;99.90;;;3.37;84.28;100635.06;5115876;28;20120;-70
2023/12/01 09:30:16;;;;;;;58.90;30.43;;;3.30;99.90;;;3.50;84.45;100640.56;5097668;28;20051;-69
2023/12/01 09:32:46;;;;;;;63.93;30.83;;;3.40;99.90;;;3.72;84.14;100648.88;5116211;28;20109;-70
2023/12/01 09:35:19;;;;;;;61.63;31.63;;;3.60;99.90;;;3.90;83.83;100643.97;5115994;28;20462;-69
2023/12/01 09:38:07;;;;;;;57.40;27.23;;;3.80;99.90;;;3.97;82.62;100645.84;5115699;28;20119;-70
2023/12/01 09:40:42;;;;;;;53.47;27.27;;;3.90;99.90;;;3.87;80.92;100651.75;5115896;28;20105;-69
2023/12/01 09:43:13;;;;;;;50.80;27.20;;;3.90;99.90;;;3.39;81.01;100654.28;5115524;28;20092;-70
2023/12/01 09:45:42;;;;;;;49.63;25.77;;;3.50;99.90;;;2.86;81.02;100658.34;5115784;28;20503;-69
2023/12/01 09:48:13;;;;;;;57.47;27.63;;;3.00;99.90;;;2.79;82.14;100655.56;5115286;28;20047;-69
2023/12/01 09:50:44;;;;;;;60.70;28.97;;;2.80;99.90;;;3.11;82.90;100659.78;5115617;28;20055;-69
2023/12/01 09:53:14;;;;;;;54.00;28.13;;;3.00;99.90;;;3.30;83.19;100665.44;5115343;28;20546;-70
2023/12/01 09:55:43;;;;;;;54.05;26.77;;;3.20;99.90;;;3.07;83.01;100668.38;5097234;28;20052;-69
2023/12/01 09:58:12;;;;;;;52.63;25.83;;;3.10;99.90;;;2.78;82.81;100656.41;5115008;28;20047;-69
2023/12/01 10:00:40;;;;;;;52.33;27.57;;;2.90;99.90;;;2.73;83.78;100670.22;5115215;28;20108;-69
2023/12/01 10:03:08;;;;;;;55.90;27.10;;;2.70;99.90;;;3.21;84.18;100662.63;5115127;28;20059;-70
2023/12/01 10:05:37;;;;;;;52.27;27.17;;;3.00;99.90;;;3.00;82.12;100627.31;5115108;28;20039;-69
2023/12/01 10:08:07;;;;;;;49.77;24.63;;;3.10;99.90;;;2.94;81.76;100667.25;5115104;28;20259;-69
2023/12/01 10:10:35;;;;;;;52.67;25.58;;;3.00;99.90;;;2.95;81.63;100670.72;5115566;28;20154;-70
2023/12/01 10:13:06;;;;;;;54.70;26.17;;;3.00;99.90;;;2.77;82.09;100665.09;5115000;28;20483;-69
2023/12/01 10:15:38;;;;;;;51.47;25.57;;;2.80;99.90;;;2.98;83.34;100663.81;5114998;28;20118;-69